Wolf Lake, Indiana
Current Conditions -  °F | °C
As of 11:15 AM on Saturday 25 Oct 2014 (Local Time) from KASW Reporting Station
Haze Haze  
Wind Chill: 61°   Ceiling: Unl
Heat Index: 61°   Visibility: 5mi
Dew Point: 54°   Wind: 8mph
Humidity: 77%   Direction: 260°W
Pressure: 29.92"   Gusts: NA
Location:  41.3346°N, 85.4973°W
Report Text: KASW 251515Z AUTO 26007KT 5SM HZ CLR 16/12 A2992 RMK AO2
Loading
Personal Weather Stations






























Interactive Weather Map
Tropical Storm Tracking
New forecast layout! Learn more

10-Day Weather Forecast

Advertisements
Track Severe Weather on mobile